Terminal Aerodrome Forecast
Issued by NWS

Home | Current Version | Previous Version | Text Only | Print | Product List | Glossary On
Versions: 1 2 3 4 5 6 7 8 9 10 11 12 13
967
FTUS44 KTSA 130520
TAFFYV
TAF
KFYV 130520Z 1306/1406 01005KT P6SM BKN100
     FM131400 05004KT P6SM SCT250
     FM131700 12007KT P6SM SCT250
     FM140300 14007KT P6SM SCT030 BKN250
     FM140500 15008G15KT P6SM BKN025 OVC100=

USA.gov is the U.S. government's official web portal to all federal, state and local government web resources and services.